createdAt,value
2023-03-03T00:00:47.715Z,94281.88
2023-03-03T00:03:20.752Z,94270.59
2023-03-03T00:05:47.566Z,94263.47
2023-03-03T00:08:14.224Z,94267.44
2023-03-03T00:10:41.258Z,94270.63
2023-03-03T00:13:38.962Z,94275.53
2023-03-03T00:16:23.065Z,94271.88
2023-03-03T00:18:50.163Z,94272.84
2023-03-03T00:21:30.761Z,94278.66
2023-03-03T00:24:19.412Z,94282.34
2023-03-03T00:26:48.159Z,94278.66
2023-03-03T00:29:27.070Z,94276.81
2023-03-03T00:31:54.098Z,94280.53
2023-03-03T00:34:28.663Z,94279.22
2023-03-03T00:36:57.784Z,94277.66
2023-03-03T00:39:40.046Z,94282.94
2023-03-03T00:42:15.207Z,94267.09
2023-03-03T00:44:47.453Z,94273.69
2023-03-03T00:47:14.068Z,94283.44
2023-03-03T00:49:41.732Z,94265.00
2023-03-03T00:52:17.758Z,94276.94
2023-03-03T00:54:44.786Z,94276.44
2023-03-03T00:57:12.772Z,94280.03
2023-03-03T00:59:41.416Z,94277.91
2023-03-03T01:02:09.047Z,94271.53
2023-03-03T01:04:36.392Z,94263.59
2023-03-03T01:07:03.379Z,94264.41
2023-03-03T01:09:30.090Z,94269.94
2023-03-03T01:11:56.910Z,94260.91
2023-03-03T01:14:23.788Z,94269.88
2023-03-03T01:16:51.347Z,94271.22
2023-03-03T01:19:18.183Z,94263.38
2023-03-03T01:21:44.888Z,94265.75
2023-03-03T01:24:11.623Z,94260.44
2023-03-03T01:26:38.560Z,94260.72
2023-03-03T01:29:05.392Z,94254.63
2023-03-03T01:31:32.322Z,94252.22
2023-03-03T01:33:59.184Z,94265.38
2023-03-03T01:36:27.641Z,94268.31
2023-03-03T01:38:54.793Z,94272.53
2023-03-03T01:41:21.785Z,94269.47
2023-03-03T01:43:50.562Z,94263.66
2023-03-03T01:46:42.374Z,94277.09
2023-03-03T01:49:21.566Z,94275.47
2023-03-03T01:51:54.458Z,94269.03
2023-03-03T01:54:33.928Z,94261.72
2023-03-03T01:57:04.630Z,94265.97
2023-03-03T01:59:35.677Z,94253.91
2023-03-03T02:02:03.160Z,94263.25
2023-03-03T02:04:29.906Z,94253.22
2023-03-03T02:07:04.450Z,94257.41
2023-03-03T02:09:55.864Z,94257.03
2023-03-03T02:12:31.124Z,94253.34
2023-03-03T02:14:57.821Z,94245.19
2023-03-03T02:17:24.693Z,94251.19
2023-03-03T02:20:08.443Z,94248.00
2023-03-03T02:22:46.482Z,94242.97
2023-03-03T02:25:20.968Z,94245.13
2023-03-03T02:27:47.681Z,94244.13
2023-03-03T02:30:19.329Z,94247.25
2023-03-03T02:32:46.116Z,94244.13
2023-03-03T02:35:32.129Z,94251.19
2023-03-03T02:38:22.862Z,94245.03
2023-03-03T02:41:00.648Z,94233.13
2023-03-03T02:43:32.239Z,94242.38
2023-03-03T02:45:58.999Z,94236.63
2023-03-03T02:48:25.681Z,94236.91
2023-03-03T02:50:52.877Z,94231.16
2023-03-03T02:53:19.685Z,94235.94
2023-03-03T02:55:46.445Z,94233.63
2023-03-03T02:58:13.101Z,94237.81
2023-03-03T03:00:39.933Z,94230.38
2023-03-03T03:03:06.648Z,94233.81
2023-03-03T03:05:34.730Z,94241.13
2023-03-03T03:08:03.412Z,94231.69
2023-03-03T03:10:31.175Z,94239.63
2023-03-03T03:12:58.226Z,94232.03
2023-03-03T03:15:25.115Z,94246.06
2023-03-03T03:17:51.836Z,94236.81
2023-03-03T03:20:19.078Z,94234.97
2023-03-03T03:22:46.149Z,94238.13
2023-03-03T03:25:12.851Z,94246.81
2023-03-03T03:27:40.102Z,94246.03
2023-03-03T03:30:07.645Z,94237.13
2023-03-03T03:32:35.162Z,94237.78
2023-03-03T03:35:01.984Z,94247.31
2023-03-03T03:37:28.957Z,94244.09
2023-03-03T03:39:56.396Z,94238.22
2023-03-03T03:42:23.668Z,94246.09
2023-03-03T03:44:51.688Z,94248.59
2023-03-03T03:47:18.973Z,94237.03
2023-03-03T03:49:45.876Z,94246.63
2023-03-03T03:52:13.188Z,94245.25
2023-03-03T03:54:39.975Z,94254.13
2023-03-03T03:57:06.667Z,94246.44
2023-03-03T03:59:33.653Z,94246.16
2023-03-03T04:02:00.436Z,94250.31
2023-03-03T04:04:27.204Z,94255.38
2023-03-03T04:06:54.158Z,94258.41
2023-03-03T04:09:21.074Z,94239.50
2023-03-03T04:11:48.049Z,94258.47
2023-03-03T04:14:15.379Z,94259.22
2023-03-03T04:16:42.443Z,94254.75
2023-03-03T04:19:10.003Z,94247.69
2023-03-03T04:21:38.384Z,94248.69
2023-03-03T04:24:05.748Z,94252.91
2023-03-03T04:26:33.812Z,94256.81
2023-03-03T04:29:02.860Z,94243.03
2023-03-03T04:31:30.123Z,94246.75
2023-03-03T04:33:57.199Z,94267.69
2023-03-03T04:36:24.581Z,94255.28
2023-03-03T04:38:51.404Z,94257.88
2023-03-03T04:41:18.552Z,94251.50
2023-03-03T04:43:45.568Z,94235.38
2023-03-03T04:46:13.828Z,94265.69
2023-03-03T04:48:40.561Z,94258.41
2023-03-03T04:51:07.348Z,94261.56
2023-03-03T04:53:38.290Z,94266.88
2023-03-03T04:56:06.403Z,94272.72
2023-03-03T04:58:33.197Z,94262.16
2023-03-03T05:00:59.978Z,94263.97
2023-03-03T05:03:28.982Z,94257.09
2023-03-03T05:05:55.928Z,94266.84
2023-03-03T05:08:23.233Z,94269.97
2023-03-03T05:10:54.594Z,94270.28
2023-03-03T05:13:21.455Z,94268.97
2023-03-03T05:15:53.030Z,94270.53
2023-03-03T05:18:20.310Z,94268.41
2023-03-03T05:20:47.146Z,94276.81
2023-03-03T05:23:14.180Z,94264.97
2023-03-03T05:25:42.374Z,94283.16
2023-03-03T05:28:10.567Z,94284.50
2023-03-03T05:30:37.856Z,94278.75
2023-03-03T05:33:05.315Z,94282.69
2023-03-03T05:35:32.301Z,94281.13
2023-03-03T05:37:58.952Z,94277.94
2023-03-03T05:40:27.172Z,94278.22
2023-03-03T05:42:53.943Z,94266.31
2023-03-03T05:45:21.324Z,94278.38
2023-03-03T05:47:48.460Z,94290.47
2023-03-03T05:50:15.936Z,94284.19
2023-03-03T05:52:42.763Z,94293.72
2023-03-03T05:55:10.098Z,94291.47
2023-03-03T05:57:36.728Z,94292.81
2023-03-03T06:00:06.024Z,94304.88
2023-03-03T06:02:39.300Z,94299.56
2023-03-03T06:05:06.837Z,94286.69
2023-03-03T06:07:33.499Z,94303.25
2023-03-03T06:10:00.429Z,94309.09
2023-03-03T06:12:28.995Z,94311.53
2023-03-03T06:14:55.761Z,94307.31
2023-03-03T06:17:22.432Z,94307.56
2023-03-03T06:19:49.048Z,94308.41
2023-03-03T06:22:15.678Z,94316.88
2023-03-03T06:24:42.372Z,94319.88
2023-03-03T06:27:09.720Z,94318.59
2023-03-03T06:29:36.446Z,94321.75
2023-03-03T06:32:03.433Z,94311.09
2023-03-03T06:34:30.312Z,94328.81
2023-03-03T06:36:57.246Z,94318.47
2023-03-03T06:39:23.966Z,94332.47
2023-03-03T06:41:50.684Z,94320.28
2023-03-03T06:44:17.485Z,94324.78
2023-03-03T06:46:44.098Z,94316.91
2023-03-03T06:49:10.731Z,94319.59
2023-03-03T06:51:39.991Z,94335.50
2023-03-03T06:54:19.450Z,94342.34
2023-03-03T06:56:47.380Z,94343.91
2023-03-03T06:59:23.395Z,94344.41
2023-03-03T07:01:51.526Z,94354.59
2023-03-03T07:04:29.341Z,94346.13
2023-03-03T07:06:58.552Z,94354.88
2023-03-03T07:09:28.620Z,94349.41
2023-03-03T07:12:02.485Z,94349.44
2023-03-03T07:14:30.433Z,94350.75
2023-03-03T07:17:00.758Z,94348.69
2023-03-03T07:19:34.301Z,94365.34
2023-03-03T07:22:14.471Z,94364.75
2023-03-03T07:24:42.400Z,94367.00
2023-03-03T07:27:19.985Z,94369.66
2023-03-03T07:29:51.934Z,94365.47
2023-03-03T07:32:37.357Z,94371.53
2023-03-03T07:35:24.626Z,94372.81
2023-03-03T07:37:51.556Z,94358.84
2023-03-03T07:40:35.999Z,94375.97
2023-03-03T07:43:30.448Z,94374.09
2023-03-03T07:46:15.104Z,94377.75
2023-03-03T07:48:42.942Z,94380.84
2023-03-03T07:51:50.021Z,94385.09
2023-03-03T07:54:29.828Z,94387.75
2023-03-03T07:57:03.168Z,94396.47
2023-03-03T07:59:37.102Z,94383.94
2023-03-03T08:02:16.401Z,94388.72
2023-03-03T08:04:50.931Z,94378.63
2023-03-03T08:07:19.756Z,94385.75
2023-03-03T08:10:00.830Z,94394.44
2023-03-03T08:12:42.979Z,94400.44
2023-03-03T08:15:22.832Z,94394.13
2023-03-03T08:17:50.972Z,94392.16
2023-03-03T08:20:51.156Z,94391.50
2023-03-03T08:23:19.208Z,94383.28
2023-03-03T08:25:47.101Z,94383.78
2023-03-03T08:28:14.716Z,94381.50
2023-03-03T08:30:42.090Z,94383.28
2023-03-03T08:33:08.780Z,94389.03
2023-03-03T08:35:35.498Z,94376.31
2023-03-03T08:38:02.297Z,94384.66
2023-03-03T08:40:28.918Z,94379.84
2023-03-03T08:42:55.628Z,94381.16
2023-03-03T08:45:22.266Z,94384.31
2023-03-03T08:47:48.917Z,94386.41
2023-03-03T08:50:16.038Z,94381.47
2023-03-03T08:52:43.176Z,94383.63
2023-03-03T08:55:10.138Z,94377.53
2023-03-03T08:57:36.844Z,94389.16
2023-03-03T09:00:04.048Z,94393.28
2023-03-03T09:02:30.719Z,94395.09
2023-03-03T09:04:57.417Z,94402.34
2023-03-03T09:07:24.072Z,94399.28
2023-03-03T09:09:50.821Z,94402.16
2023-03-03T09:12:28.700Z,94410.34
2023-03-03T09:15:00.186Z,94417.31
2023-03-03T09:17:35.519Z,94423.91
2023-03-03T09:20:33.710Z,94429.50
2023-03-03T09:23:22.047Z,94428.66
2023-03-03T09:25:48.699Z,94434.41
2023-03-03T09:28:33.539Z,94418.97
2023-03-03T09:31:02.297Z,94428.66
2023-03-03T09:33:40.397Z,94429.22
2023-03-03T09:36:35.420Z,94429.06
2023-03-03T09:39:18.373Z,94424.59
2023-03-03T09:42:09.432Z,94439.81
2023-03-03T09:44:46.249Z,94442.81
2023-03-03T09:47:45.072Z,94428.13
2023-03-03T09:50:34.883Z,94433.56
2023-03-03T09:53:38.672Z,94442.94
2023-03-03T09:56:30.571Z,94439.00
2023-03-03T09:59:12.428Z,94443.03
2023-03-03T10:02:11.409Z,94441.84
2023-03-03T10:04:41.123Z,94446.00
2023-03-03T10:08:01.653Z,94452.22
2023-03-03T10:11:03.773Z,94454.06
2023-03-03T10:13:52.050Z,94448.72
2023-03-03T10:16:37.410Z,94456.72
2023-03-03T10:19:10.012Z,94445.72
2023-03-03T10:21:50.065Z,94435.44
2023-03-03T10:24:29.454Z,94436.81
2023-03-03T10:27:13.446Z,94446.91
2023-03-03T10:30:08.320Z,94445.06
2023-03-03T10:32:38.640Z,94439.72
2023-03-03T10:35:14.763Z,94443.66
2023-03-03T10:37:52.837Z,94438.44
2023-03-03T10:40:44.124Z,94446.63
2023-03-03T10:43:13.749Z,94448.31
2023-03-03T10:45:59.045Z,94452.34
2023-03-03T10:48:45.186Z,94445.84
2023-03-03T10:51:36.704Z,94459.28
2023-03-03T10:54:06.307Z,94457.28
2023-03-03T10:56:57.989Z,94452.69
2023-03-03T10:59:40.974Z,94457.03
2023-03-03T11:02:16.797Z,94465.81
2023-03-03T11:05:02.318Z,94462.44
2023-03-03T11:07:39.229Z,94449.50
2023-03-03T11:10:18.771Z,94462.38
2023-03-03T11:13:11.040Z,94463.91
2023-03-03T11:15:56.344Z,94465.16
2023-03-03T11:18:39.256Z,94462.56
2023-03-03T11:21:41.655Z,94469.28
2023-03-03T11:24:25.104Z,94467.66
2023-03-03T11:27:06.865Z,94457.34
2023-03-03T11:30:10.959Z,94455.72
2023-03-03T11:33:03.447Z,94456.63
2023-03-03T11:35:36.419Z,94454.84
2023-03-03T11:38:31.825Z,94458.69
2023-03-03T11:41:18.353Z,94455.53
2023-03-03T11:43:49.286Z,94449.69
2023-03-03T11:46:26.286Z,94452.38
2023-03-03T11:49:02.264Z,94443.16
2023-03-03T11:51:40.803Z,94442.41
2023-03-03T11:54:26.185Z,94446.44
2023-03-03T11:57:05.557Z,94445.56
2023-03-03T11:59:44.600Z,94439.88
2023-03-03T12:02:27.809Z,94432.97
2023-03-03T12:05:05.628Z,94431.09
2023-03-03T12:07:38.246Z,94428.69
2023-03-03T12:10:18.043Z,94427.59
2023-03-03T12:12:52.660Z,94436.50
2023-03-03T12:15:23.495Z,94433.41
2023-03-03T12:18:47.381Z,94431.56
2023-03-03T12:21:43.654Z,94437.31
2023-03-03T12:24:10.351Z,94433.03
2023-03-03T12:27:03.564Z,94429.59
2023-03-03T12:29:30.351Z,94431.44
2023-03-03T12:32:09.278Z,94432.88
2023-03-03T12:34:46.255Z,94427.25
2023-03-03T12:37:19.100Z,94434.81
2023-03-03T12:39:58.547Z,94427.97
2023-03-03T12:43:12.950Z,94429.25
2023-03-03T12:46:00.464Z,94427.03
2023-03-03T12:48:46.794Z,94422.84
2023-03-03T12:51:13.634Z,94426.16
2023-03-03T12:54:00.453Z,94420.28
2023-03-03T12:56:50.426Z,94416.22
2023-03-03T12:59:29.882Z,94410.31
2023-03-03T13:02:14.962Z,94408.34
2023-03-03T13:05:23.518Z,94418.56
2023-03-03T13:08:31.405Z,94419.81
2023-03-03T13:11:22.342Z,94414.81
2023-03-03T13:14:02.918Z,94412.13
2023-03-03T13:16:41.508Z,94408.09
2023-03-03T13:19:20.844Z,94409.84
2023-03-03T13:22:01.538Z,94409.66
2023-03-03T13:24:37.624Z,94416.31
2023-03-03T13:27:04.309Z,94410.03
2023-03-03T13:29:37.754Z,94394.84
2023-03-03T13:32:18.876Z,94406.56
2023-03-03T13:35:00.452Z,94398.91
2023-03-03T13:37:37.986Z,94401.38
2023-03-03T13:40:13.963Z,94399.47
2023-03-03T13:42:46.679Z,94395.13
2023-03-03T13:45:35.213Z,94397.22
2023-03-03T13:48:33.246Z,94407.63
2023-03-03T13:51:35.935Z,94396.13
2023-03-03T13:54:09.301Z,94397.06
2023-03-03T13:56:48.569Z,94384.31
2023-03-03T13:59:37.366Z,94386.72
2023-03-03T14:02:38.049Z,94376.47
2023-03-03T14:05:18.723Z,94367.97
2023-03-03T14:07:55.215Z,94365.53
2023-03-03T14:10:31.584Z,94378.63
2023-03-03T14:13:22.281Z,94366.13
2023-03-03T14:16:10.514Z,94377.09
2023-03-03T14:18:58.260Z,94369.13
2023-03-03T14:21:40.925Z,94362.69
2023-03-03T14:24:23.342Z,94364.38
2023-03-03T14:26:53.009Z,94367.88
2023-03-03T14:29:28.859Z,94370.09
2023-03-03T14:32:20.323Z,94369.84
2023-03-03T14:34:58.873Z,94364.81
2023-03-03T14:37:46.490Z,94367.72
2023-03-03T14:40:22.340Z,94364.00
2023-03-03T14:42:51.939Z,94364.69
2023-03-03T14:45:37.032Z,94363.47
2023-03-03T14:48:22.974Z,94370.09
2023-03-03T14:51:27.800Z,94365.66
2023-03-03T14:53:56.919Z,94375.16
2023-03-03T14:56:28.741Z,94375.03
2023-03-03T14:59:17.069Z,94366.97
2023-03-03T15:01:44.070Z,94355.00
2023-03-03T15:04:25.267Z,94360.72
2023-03-03T15:06:54.643Z,94372.25
2023-03-03T15:09:45.723Z,94366.41
2023-03-03T15:12:25.914Z,94359.94
2023-03-03T15:15:20.146Z,94366.31
2023-03-03T15:17:49.856Z,94364.69
2023-03-03T15:20:44.081Z,94367.75
2023-03-03T15:23:28.149Z,94366.84
2023-03-03T15:26:02.447Z,94365.66
2023-03-03T15:29:06.189Z,94360.97
2023-03-03T15:31:57.415Z,94371.41
2023-03-03T15:35:00.307Z,94359.47
2023-03-03T15:37:48.775Z,94372.84
2023-03-03T15:40:28.983Z,94366.59
2023-03-03T15:43:14.632Z,94371.31
2023-03-03T15:45:53.265Z,94359.25
2023-03-03T15:48:31.250Z,94362.91
2023-03-03T15:51:11.881Z,94363.84
2023-03-03T15:54:01.982Z,94373.94
2023-03-03T15:56:34.775Z,94374.69
2023-03-03T15:59:42.381Z,94368.84
2023-03-03T16:02:16.204Z,94372.13
2023-03-03T16:05:03.462Z,94377.19
2023-03-03T16:08:14.326Z,94374.63
2023-03-03T16:10:57.079Z,94377.28
2023-03-03T16:13:23.632Z,94382.31
2023-03-03T16:15:53.637Z,94383.25
2023-03-03T16:18:20.348Z,94381.00
2023-03-03T16:20:57.321Z,94389.47
2023-03-03T16:23:47.253Z,94383.13
2023-03-03T16:26:41.013Z,94388.28
2023-03-03T16:29:10.535Z,94395.38
2023-03-03T16:32:06.331Z,94396.41
2023-03-03T16:35:00.506Z,94403.13
2023-03-03T16:37:36.639Z,94413.38
2023-03-03T16:40:14.858Z,94410.97
2023-03-03T16:42:41.516Z,94402.88
2023-03-03T16:45:26.878Z,94403.75
2023-03-03T16:48:11.607Z,94413.16
2023-03-03T16:51:10.743Z,94416.22
2023-03-03T16:53:45.616Z,94425.13
2023-03-03T16:56:23.966Z,94423.59
2023-03-03T16:58:57.245Z,94428.56
2023-03-03T17:01:48.663Z,94437.78
2023-03-03T17:04:21.654Z,94431.06
2023-03-03T17:07:00.123Z,94447.47
2023-03-03T17:10:02.022Z,94436.25
2023-03-03T17:12:49.827Z,94449.13
2023-03-03T17:15:36.393Z,94445.00
2023-03-03T17:18:25.846Z,94450.50
2023-03-03T17:20:59.083Z,94448.72
2023-03-03T17:23:40.901Z,94459.06
2023-03-03T17:26:28.411Z,94455.25
2023-03-03T17:29:01.005Z,94457.53
2023-03-03T17:31:48.813Z,94455.72
2023-03-03T17:35:03.071Z,94460.47
2023-03-03T17:38:11.091Z,94466.88
2023-03-03T17:40:46.716Z,94468.25
2023-03-03T17:43:34.844Z,94479.16
2023-03-03T17:46:05.177Z,94482.47
2023-03-03T17:48:49.118Z,94484.56
2023-03-03T17:51:24.359Z,94493.72
2023-03-03T17:54:27.523Z,94501.97
2023-03-03T17:57:31.407Z,94501.75
2023-03-03T18:00:19.365Z,94510.44
2023-03-03T18:02:49.044Z,94513.75
2023-03-03T18:05:43.286Z,94508.00
2023-03-03T18:08:32.291Z,94507.13
2023-03-03T18:11:38.153Z,94497.47
2023-03-03T18:14:13.644Z,94514.16
2023-03-03T18:17:08.265Z,94509.91
2023-03-03T18:19:56.932Z,94516.03
2023-03-03T18:22:30.722Z,94512.34
2023-03-03T18:25:08.509Z,94513.00
2023-03-03T18:27:40.828Z,94511.47
2023-03-03T18:30:24.672Z,94513.78
2023-03-03T18:32:57.054Z,94517.50
2023-03-03T18:35:26.722Z,94522.59
2023-03-03T18:37:54.803Z,94507.00
2023-03-03T18:40:24.416Z,94520.28
2023-03-03T18:42:53.868Z,94515.63
2023-03-03T18:45:20.492Z,94529.41
2023-03-03T18:48:05.519Z,94529.97
2023-03-03T18:50:36.604Z,94521.31
2023-03-03T18:53:28.604Z,94534.34
2023-03-03T18:56:01.067Z,94536.28
2023-03-03T18:58:42.432Z,94541.41
2023-03-03T19:01:12.056Z,94543.53
2023-03-03T19:03:47.612Z,94536.41
2023-03-03T19:06:52.615Z,94547.66
2023-03-03T19:09:40.561Z,94544.81
2023-03-03T19:12:11.318Z,94541.97
2023-03-03T19:14:40.367Z,94546.94
2023-03-03T19:17:20.637Z,94553.59
2023-03-03T19:20:11.953Z,94548.34
2023-03-03T19:22:52.426Z,94555.00
2023-03-03T19:25:27.179Z,94551.59
2023-03-03T19:28:11.436Z,94547.91
2023-03-03T19:30:59.688Z,94555.09
2023-03-03T19:34:16.476Z,94550.88
2023-03-03T19:36:58.259Z,94557.81
2023-03-03T19:39:37.742Z,94560.00
2023-03-03T19:42:13.408Z,94560.00
2023-03-03T19:45:19.801Z,94562.88
2023-03-03T19:47:54.965Z,94564.22
2023-03-03T19:50:34.596Z,94566.59
2023-03-03T19:53:04.170Z,94563.44
2023-03-03T19:55:39.834Z,94567.69
2023-03-03T19:58:28.429Z,94561.13
2023-03-03T20:00:59.616Z,94556.41
2023-03-03T20:03:45.045Z,94556.41
2023-03-03T20:06:25.046Z,94564.91
2023-03-03T20:09:09.008Z,94566.25
2023-03-03T20:12:02.632Z,94554.38
2023-03-03T20:14:50.104Z,94559.66
2023-03-03T20:17:56.508Z,94563.91
2023-03-03T20:20:44.830Z,94570.25
2023-03-03T20:23:23.318Z,94571.63
2023-03-03T20:26:13.945Z,94563.72
2023-03-03T20:29:06.628Z,94568.75
2023-03-03T20:31:51.403Z,94564.53
2023-03-03T20:34:51.441Z,94566.66
2023-03-03T20:37:31.067Z,94572.75
2023-03-03T20:40:19.617Z,94573.03
2023-03-03T20:43:06.935Z,94568.31
2023-03-03T20:45:55.534Z,94573.06
2023-03-03T20:49:01.740Z,94576.53
2023-03-03T20:51:31.412Z,94579.47
2023-03-03T20:54:11.002Z,94579.50
2023-03-03T20:56:46.788Z,94587.16
2023-03-03T20:59:19.490Z,94575.78
2023-03-03T21:01:55.626Z,94576.88
2023-03-03T21:04:25.249Z,94577.41
2023-03-03T21:06:52.357Z,94566.31
2023-03-03T21:09:31.413Z,94576.38
2023-03-03T21:12:00.710Z,94574.00
2023-03-03T21:14:34.536Z,94573.75
2023-03-03T21:17:27.698Z,94574.81
2023-03-03T21:19:54.380Z,94580.34
2023-03-03T21:22:21.393Z,94572.69
2023-03-03T21:24:48.033Z,94585.38
2023-03-03T21:27:32.333Z,94580.38
2023-03-03T21:30:11.847Z,94582.75
2023-03-03T21:32:48.108Z,94580.09
2023-03-03T21:35:21.799Z,94576.97
2023-03-03T21:37:50.991Z,94582.81
2023-03-03T21:40:20.921Z,94592.84
2023-03-03T21:42:47.683Z,94566.19
2023-03-03T21:45:16.480Z,94576.47
2023-03-03T21:47:43.112Z,94582.28
2023-03-03T21:50:11.519Z,94583.06
2023-03-03T21:52:38.422Z,94578.31
2023-03-03T21:55:06.140Z,94577.78
2023-03-03T21:57:32.804Z,94582.28
2023-03-03T21:59:59.524Z,94577.56
2023-03-03T22:02:26.288Z,94579.41
2023-03-03T22:04:53.305Z,94581.78
2023-03-03T22:07:19.951Z,94569.63
2023-03-03T22:09:46.589Z,94580.75
2023-03-03T22:12:13.245Z,94563.28
2023-03-03T22:14:39.907Z,94578.88
2023-03-03T22:17:06.511Z,94578.09
2023-03-03T22:19:34.313Z,94569.16
2023-03-03T22:22:00.983Z,94571.53
2023-03-03T22:24:27.693Z,94579.97
2023-03-03T22:26:54.303Z,94569.66
2023-03-03T22:29:23.061Z,94582.09
2023-03-03T22:31:51.034Z,94572.31
2023-03-03T22:34:17.875Z,94574.16
2023-03-03T22:36:44.558Z,94566.50
2023-03-03T22:39:11.367Z,94571.53
2023-03-03T22:41:38.214Z,94554.09
2023-03-03T22:44:05.102Z,94566.22
2023-03-03T22:46:31.817Z,94564.38
2023-03-03T22:48:58.464Z,94568.88
2023-03-03T22:51:26.192Z,94579.19
2023-03-03T22:53:53.119Z,94568.13
2023-03-03T22:56:19.872Z,94572.88
2023-03-03T22:58:46.533Z,94577.63
2023-03-03T23:01:13.323Z,94583.72
2023-03-03T23:03:40.066Z,94575.25
2023-03-03T23:06:07.159Z,94573.66
2023-03-03T23:08:33.805Z,94567.59
2023-03-03T23:11:00.515Z,94576.59
2023-03-03T23:13:27.373Z,94577.63
2023-03-03T23:15:54.164Z,94567.06
2023-03-03T23:18:20.774Z,94581.88
2023-03-03T23:20:47.617Z,94583.97
2023-03-03T23:23:14.301Z,94590.28
2023-03-03T23:25:40.916Z,94592.41
2023-03-03T23:28:08.300Z,94582.13
2023-03-03T23:30:35.009Z,94590.84
2023-03-03T23:33:01.975Z,94570.22
2023-03-03T23:35:28.655Z,94583.19
2023-03-03T23:37:55.303Z,94593.19
2023-03-03T23:40:22.461Z,94584.22
2023-03-03T23:42:49.687Z,94598.22
2023-03-03T23:45:18.009Z,94601.66
2023-03-03T23:47:44.766Z,94589.25
2023-03-03T23:50:13.302Z,94606.69
2023-03-03T23:52:40.032Z,94589.78
2023-03-03T23:55:07.435Z,94590.03
2023-03-03T23:57:34.051Z,94598.25
